• pl
  • eng

Awiacja
TAF FC 09:30 25.03.2017
  • WIND
  • SIGNIFICANT EURO
  • SIGNIFICANT
  • SIGMET
  • AIRMET
  • TAF FC
  • TAF FT
  • METAR GG30
  • METAR GG00


TAF EPLB 250830Z 2509/2518 27012KT CAVOK
TEMPO 2511/2518 28015G25KT
PROB40 TEMPO 2516/2518 RA BKN014=

TAF EPRA 250830Z 2509/2518 29012KT CAVOK
PROB40 TEMPO 2510/2516 29014G24KT=

TAF EPSY 250830Z 2509/2518 30012KT CAVOK
PROB30 TEMPO 2513/2518 -RA BKN014=

TAF EPZG 250830Z 2509/2518 27010KT CAVOK
PROB40 TEMPO 2512/2515 29015G25KT
BECMG 2516/2518 34004KT=
Awiacja.imgw.pl jest pogodowym serwisem informacyjnym
Instytutu Meteorologii i Gospodarki Wodnej Państwowego Instytutu Badawczego.
Copyright IMGW PIB 2009-2011© Wszelkie prawa zastrzeżone.